sensor_id;sensor_type;location;lat;lon;timestamp;pressure;altitude;pressure_sealevel;temperature;humidity
38285;BME280;24088;42.664;23.354;2022-11-04T00:00:39;95191.50;;;12.52;100.00
38285;BME280;24088;42.664;23.354;2022-11-04T00:01:42;95187.53;;;12.53;100.00
38285;BME280;24088;42.664;23.354;2022-11-04T00:02:42;95192.78;;;12.48;100.00
38285;BME280;24088;42.664;23.354;2022-11-04T00:03:44;95188.03;;;12.32;100.00
38285;BME280;24088;42.664;23.354;2022-11-04T00:04:44;95195.66;;;12.61;100.00
38285;BME280;24088;42.664;23.354;2022-11-04T00:05:46;95188.72;;;12.72;100.00
38285;BME280;24088;42.664;23.354;2022-11-04T00:06:47;95184.38;;;12.71;100.00
38285;BME280;24088;42.664;23.354;2022-11-04T00:07:48;95191.25;;;12.63;100.00
38285;BME280;24088;42.664;23.354;2022-11-04T00:09:08;95192.13;;;12.60;100.00
38285;BME280;24088;42.664;23.354;2022-11-04T00:10:10;95184.88;;;12.50;100.00
38285;BME280;24088;42.664;23.354;2022-11-04T00:11:10;95183.38;;;12.29;100.00
38285;BME280;24088;42.664;23.354;2022-11-04T00:12:29;95191.66;;;12.29;100.00
38285;BME280;24088;42.664;23.354;2022-11-04T00:13:29;95186.53;;;12.27;100.00
38285;BME280;24088;42.664;23.354;2022-11-04T00:14:33;95186.97;;;12.26;100.00
38285;BME280;24088;42.664;23.354;2022-11-04T00:15:35;95191.34;;;12.23;100.00
38285;BME280;24088;42.664;23.354;2022-11-04T00:16:54;95192.38;;;12.13;100.00
38285;BME280;24088;42.664;23.354;2022-11-04T00:18:13;95189.69;;;12.10;100.00
38285;BME280;24088;42.664;23.354;2022-11-04T00:19:13;95192.72;;;12.51;100.00
38285;BME280;24088;42.664;23.354;2022-11-04T00:20:15;95188.94;;;12.62;100.00
38285;BME280;24088;42.664;23.354;2022-11-04T00:21:34;95187.28;;;12.48;100.00
38285;BME280;24088;42.664;23.354;2022-11-04T00:22:53;95194.69;;;12.51;100.00
38285;BME280;24088;42.664;23.354;2022-11-04T00:24:12;95187.63;;;12.34;100.00
38285;BME280;24088;42.664;23.354;2022-11-04T00:25:31;95187.75;;;12.26;100.00
38285;BME280;24088;42.664;23.354;2022-11-04T00:26:50;95181.88;;;12.24;100.00
38285;BME280;24088;42.664;23.354;2022-11-04T00:28:10;95186.28;;;12.22;100.00
38285;BME280;24088;42.664;23.354;2022-11-04T00:29:29;95182.25;;;12.07;100.00
38285;BME280;24088;42.664;23.354;2022-11-04T00:30:32;95183.03;;;12.27;100.00
38285;BME280;24088;42.664;23.354;2022-11-04T00:31:33;95190.78;;;12.32;100.00
38285;BME280;24088;42.664;23.354;2022-11-04T00:32:52;95183.34;;;12.13;100.00
38285;BME280;24088;42.664;23.354;2022-11-04T00:34:11;95187.31;;;12.28;100.00
38285;BME280;24088;42.664;23.354;2022-11-04T00:35:12;95184.56;;;12.28;100.00
38285;BME280;24088;42.664;23.354;2022-11-04T00:36:13;95185.84;;;12.23;100.00
38285;BME280;24088;42.664;23.354;2022-11-04T00:37:14;95186.22;;;12.42;100.00
38285;BME280;24088;42.664;23.354;2022-11-04T00:38:15;95183.94;;;12.20;100.00
38285;BME280;24088;42.664;23.354;2022-11-04T00:39:16;95175.84;;;12.13;100.00
38285;BME280;24088;42.664;23.354;2022-11-04T00:40:17;95176.75;;;12.07;100.00
38285;BME280;24088;42.664;23.354;2022-11-04T00:41:19;95172.84;;;12.08;100.00
38285;BME280;24088;42.664;23.354;2022-11-04T00:42:25;95175.06;;;12.13;100.00
38285;BME280;24088;42.664;23.354;2022-11-04T00:43:27;95173.94;;;12.10;100.00
38285;BME280;24088;42.664;23.354;2022-11-04T00:44:27;95171.13;;;11.94;100.00
38285;BME280;24088;42.664;23.354;2022-11-04T00:45:29;95179.69;;;11.99;100.00
38285;BME280;24088;42.664;23.354;2022-11-04T00:46:32;95176.63;;;11.94;100.00
38285;BME280;24088;42.664;23.354;2022-11-04T00:47:33;95173.16;;;11.90;100.00
38285;BME280;24088;42.664;23.354;2022-11-04T00:48:34;95171.56;;;11.92;100.00
38285;BME280;24088;42.664;23.354;2022-11-04T00:49:35;95173.16;;;11.90;100.00
38285;BME280;24088;42.664;23.354;2022-11-04T00:50:36;95172.41;;;11.89;100.00
38285;BME280;24088;42.664;23.354;2022-11-04T00:51:37;95171.69;;;11.85;100.00
38285;BME280;24088;42.664;23.354;2022-11-04T00:52:38;95169.59;;;11.93;100.00
38285;BME280;24088;42.664;23.354;2022-11-04T00:53:39;95166.00;;;11.96;100.00
38285;BME280;24088;42.664;23.354;2022-11-04T00:54:40;95157.94;;;12.05;100.00
38285;BME280;24088;42.664;23.354;2022-11-04T00:55:41;95157.88;;;11.89;100.00
38285;BME280;24088;42.664;23.354;2022-11-04T00:56:42;95162.78;;;11.77;100.00
38285;BME280;24088;42.664;23.354;2022-11-04T00:57:43;95162.25;;;11.86;100.00
38285;BME280;24088;42.664;23.354;2022-11-04T00:58:44;95159.34;;;11.93;100.00
38285;BME280;24088;42.664;23.354;2022-11-04T00:59:45;95161.53;;;11.82;100.00
38285;BME280;24088;42.664;23.354;2022-11-04T01:00:46;95157.28;;;11.77;100.00
38285;BME280;24088;42.664;23.354;2022-11-04T01:01:48;95159.53;;;12.02;100.00
38285;BME280;24088;42.664;23.354;2022-11-04T01:02:50;95154.22;;;11.95;100.00
38285;BME280;24088;42.664;23.354;2022-11-04T01:03:50;95152.50;;;11.62;100.00
38285;BME280;24088;42.664;23.354;2022-11-04T01:04:52;95151.78;;;11.77;100.00
38285;BME280;24088;42.664;23.354;2022-11-04T01:05:53;95152.91;;;11.80;100.00
38285;BME280;24088;42.664;23.354;2022-11-04T01:06:58;95153.84;;;11.93;100.00
38285;BME280;24088;42.664;23.354;2022-11-04T01:07:58;95151.63;;;11.65;100.00
38285;BME280;24088;42.664;23.354;2022-11-04T01:09:00;95158.34;;;11.64;100.00
38285;BME280;24088;42.664;23.354;2022-11-04T01:10:01;95157.78;;;11.72;100.00
38285;BME280;24088;42.664;23.354;2022-11-04T01:11:02;95155.09;;;11.49;100.00
38285;BME280;24088;42.664;23.354;2022-11-04T01:12:03;95149.88;;;11.54;100.00
38285;BME280;24088;42.664;23.354;2022-11-04T01:13:05;95154.81;;;11.63;100.00
38285;BME280;24088;42.664;23.354;2022-11-04T01:14:05;95150.66;;;11.55;100.00
38285;BME280;24088;42.664;23.354;2022-11-04T01:15:07;95151.34;;;11.39;100.00
38285;BME280;24088;42.664;23.354;2022-11-04T01:16:09;95143.25;;;11.72;100.00
38285;BME280;24088;42.664;23.354;2022-11-04T01:17:12;95148.63;;;11.79;100.00
38285;BME280;24088;42.664;23.354;2022-11-04T01:18:13;95143.09;;;11.59;100.00
38285;BME280;24088;42.664;23.354;2022-11-04T01:19:14;95147.25;;;11.47;100.00
38285;BME280;24088;42.664;23.354;2022-11-04T01:20:15;95144.25;;;11.62;100.00
38285;BME280;24088;42.664;23.354;2022-11-04T01:21:17;95144.50;;;12.07;100.00
38285;BME280;24088;42.664;23.354;2022-11-04T01:22:17;95144.59;;;12.40;100.00
38285;BME280;24088;42.664;23.354;2022-11-04T01:23:19;95137.28;;;12.49;100.00
38285;BME280;24088;42.664;23.354;2022-11-04T01:24:19;95136.13;;;12.14;100.00
38285;BME280;24088;42.664;23.354;2022-11-04T01:25:21;95131.56;;;11.88;100.00
38285;BME280;24088;42.664;23.354;2022-11-04T01:26:23;95132.03;;;11.63;100.00
38285;BME280;24088;42.664;23.354;2022-11-04T01:27:24;95124.69;;;11.56;100.00
38285;BME280;24088;42.664;23.354;2022-11-04T01:28:25;95133.03;;;11.52;100.00
38285;BME280;24088;42.664;23.354;2022-11-04T01:29:26;95129.38;;;11.39;100.00
38285;BME280;24088;42.664;23.354;2022-11-04T01:30:27;95130.19;;;11.36;100.00
38285;BME280;24088;42.664;23.354;2022-11-04T01:31:28;95122.13;;;11.25;100.00
38285;BME280;24088;42.664;23.354;2022-11-04T01:32:32;95120.16;;;11.26;100.00
38285;BME280;24088;42.664;23.354;2022-11-04T01:33:32;95127.69;;;11.22;100.00
38285;BME280;24088;42.664;23.354;2022-11-04T01:34:34;95120.59;;;11.24;100.00
38285;BME280;24088;42.664;23.354;2022-11-04T01:35:36;95124.53;;;11.23;100.00
38285;BME280;24088;42.664;23.354;2022-11-04T01:36:36;95126.31;;;11.34;100.00
38285;BME280;24088;42.664;23.354;2022-11-04T01:37:38;95125.13;;;11.54;100.00
38285;BME280;24088;42.664;23.354;2022-11-04T01:38:38;95126.06;;;11.48;100.00
38285;BME280;24088;42.664;23.354;2022-11-04T01:39:40;95129.78;;;11.38;100.00
38285;BME280;24088;42.664;23.354;2022-11-04T01:40:40;95128.56;;;11.19;100.00
38285;BME280;24088;42.664;23.354;2022-11-04T01:41:42;95130.59;;;11.15;100.00
38285;BME280;24088;42.664;23.354;2022-11-04T01:42:42;95129.06;;;11.14;100.00
38285;BME280;24088;42.664;23.354;2022-11-04T01:43:45;95128.69;;;11.12;100.00
38285;BME280;24088;42.664;23.354;2022-11-04T01:44:49;95130.75;;;11.27;100.00
38285;BME280;24088;42.664;23.354;2022-11-04T01:45:52;95124.69;;;11.56;100.00
38285;BME280;24088;42.664;23.354;2022-11-04T01:46:54;95127.56;;;11.29;100.00
38285;BME280;24088;42.664;23.354;2022-11-04T01:47:58;95129.22;;;11.03;100.00
38285;BME280;24088;42.664;23.354;2022-11-04T01:49:00;95128.84;;;11.24;100.00
38285;BME280;24088;42.664;23.354;2022-11-04T01:50:05;95123.16;;;11.35;100.00
38285;BME280;24088;42.664;23.354;2022-11-04T01:51:08;95126.31;;;11.34;100.00
38285;BME280;24088;42.664;23.354;2022-11-04T01:52:09;95122.63;;;11.20;100.00
38285;BME280;24088;42.664;23.354;2022-11-04T01:53:14;95125.03;;;11.18;100.00
38285;BME280;24088;42.664;23.354;2022-11-04T01:54:16;95121.44;;;11.21;100.00
38285;BME280;24088;42.664;23.354;2022-11-04T01:55:19;95121.41;;;11.01;100.00
38285;BME280;24088;42.664;23.354;2022-11-04T01:56:20;95116.31;;;11.00;100.00
38285;BME280;24088;42.664;23.354;2022-11-04T01:57:24;95115.25;;;10.94;100.00
38285;BME280;24088;42.664;23.354;2022-11-04T01:58:28;95112.94;;;10.92;100.00
38285;BME280;24088;42.664;23.354;2022-11-04T01:59:32;95108.06;;;11.00;100.00
38285;BME280;24088;42.664;23.354;2022-11-04T02:00:33;95114.88;;;10.92;100.00
38285;BME280;24088;42.664;23.354;2022-11-04T02:01:35;95110.38;;;11.05;100.00
38285;BME280;24088;42.664;23.354;2022-11-04T02:02:36;95112.97;;;11.12;100.00
38285;BME280;24088;42.664;23.354;2022-11-04T02:03:43;95108.69;;;11.51;100.00
38285;BME280;24088;42.664;23.354;2022-11-04T02:04:46;95112.28;;;11.68;100.00
38285;BME280;24088;42.664;23.354;2022-11-04T02:05:47;95107.78;;;11.58;100.00
38285;BME280;24088;42.664;23.354;2022-11-04T02:06:48;95113.97;;;11.22;100.00
38285;BME280;24088;42.664;23.354;2022-11-04T02:07:52;95123.56;;;11.14;100.00
38285;BME280;24088;42.664;23.354;2022-11-04T02:08:53;95118.53;;;11.09;100.00
38285;BME280;24088;42.664;23.354;2022-11-04T02:09:55;95110.00;;;11.03;100.00
38285;BME280;24088;42.664;23.354;2022-11-04T02:10:56;95108.94;;;10.97;100.00
38285;BME280;24088;42.664;23.354;2022-11-04T02:11:58;95114.22;;;11.08;100.00
38285;BME280;24088;42.664;23.354;2022-11-04T02:13:17;95106.28;;;11.13;100.00
38285;BME280;24088;42.664;23.354;2022-11-04T02:14:17;95113.41;;;11.11;100.00
38285;BME280;24088;42.664;23.354;2022-11-04T02:15:19;95107.78;;;11.18;100.00
38285;BME280;24088;42.664;23.354;2022-11-04T02:16:26;95105.66;;;11.06;100.00
38285;BME280;24088;42.664;23.354;2022-11-04T02:17:40;95103.44;;;10.97;100.00
38285;BME280;24088;42.664;23.354;2022-11-04T02:18:52;95102.50;;;10.84;100.00
38285;BME280;24088;42.664;23.354;2022-11-04T02:20:10;95108.44;;;10.78;100.00
38285;BME280;24088;42.664;23.354;2022-11-04T02:21:29;95100.94;;;11.06;100.00
38285;BME280;24088;42.664;23.354;2022-11-04T02:22:43;95105.88;;;10.91;100.00
38285;BME280;24088;42.664;23.354;2022-11-04T02:24:04;95110.44;;;10.78;100.00
38285;BME280;24088;42.664;23.354;2022-11-04T02:25:12;95116.47;;;10.93;100.00
38285;BME280;24088;42.664;23.354;2022-11-04T02:27:37;95100.13;;;10.62;100.00
38285;BME280;24088;42.664;23.354;2022-11-04T02:28:49;95105.22;;;10.60;100.00
38285;BME280;24088;42.664;23.354;2022-11-04T02:31:12;95099.81;;;10.80;100.00
38285;BME280;24088;42.664;23.354;2022-11-04T02:32:17;95099.03;;;10.80;100.00
38285;BME280;24088;42.664;23.354;2022-11-04T02:33:20;95096.13;;;10.67;100.00
38285;BME280;24088;42.664;23.354;2022-11-04T02:34:24;95095.75;;;10.65;100.00
38285;BME280;24088;42.664;23.354;2022-11-04T02:35:34;95099.66;;;10.40;100.00
38285;BME280;24088;42.664;23.354;2022-11-04T02:36:39;95100.84;;;10.66;100.00
38285;BME280;24088;42.664;23.354;2022-11-04T02:37:44;95095.63;;;10.72;100.00
38285;BME280;24088;42.664;23.354;2022-11-04T02:38:50;95097.28;;;10.66;100.00
38285;BME280;24088;42.664;23.354;2022-11-04T02:39:55;95097.59;;;10.48;100.00
38285;BME280;24088;42.664;23.354;2022-11-04T02:41:02;95100.28;;;10.51;100.00
38285;BME280;24088;42.664;23.354;2022-11-04T02:42:08;95097.94;;;10.73;100.00
38285;BME280;24088;42.664;23.354;2022-11-04T02:43:11;95090.44;;;10.54;100.00
38285;BME280;24088;42.664;23.354;2022-11-04T02:44:16;95099.50;;;10.51;100.00
38285;BME280;24088;42.664;23.354;2022-11-04T02:45:19;95093.00;;;10.41;100.00
38285;BME280;24088;42.664;23.354;2022-11-04T02:46:24;95095.22;;;10.50;100.00
38285;BME280;24088;42.664;23.354;2022-11-04T02:47:27;95088.16;;;10.49;100.00
38285;BME280;24088;42.664;23.354;2022-11-04T02:48:33;95091.69;;;10.49;100.00
38285;BME280;24088;42.664;23.354;2022-11-04T02:49:35;95094.97;;;10.64;100.00
38285;BME280;24088;42.664;23.354;2022-11-04T02:50:40;95097.72;;;10.64;100.00
38285;BME280;24088;42.664;23.354;2022-11-04T02:51:43;95091.94;;;10.59;100.00
38285;BME280;24088;42.664;23.354;2022-11-04T02:52:51;95097.19;;;10.49;100.00
38285;BME280;24088;42.664;23.354;2022-11-04T02:53:54;95089.53;;;10.37;100.00
38285;BME280;24088;42.664;23.354;2022-11-04T02:55:00;95094.22;;;10.10;100.00
38285;BME280;24088;42.664;23.354;2022-11-04T02:56:02;95091.19;;;10.31;100.00
38285;BME280;24088;42.664;23.354;2022-11-04T02:57:05;95091.66;;;10.26;100.00
38285;BME280;24088;42.664;23.354;2022-11-04T02:58:08;95091.13;;;10.35;100.00
38285;BME280;24088;42.664;23.354;2022-11-04T02:59:13;95099.56;;;10.20;100.00
38285;BME280;24088;42.664;23.354;2022-11-04T03:00:15;95096.19;;;10.09;100.00
38285;BME280;24088;42.664;23.354;2022-11-04T03:01:19;95097.16;;;10.22;100.00
38285;BME280;24088;42.664;23.354;2022-11-04T03:02:23;95096.72;;;10.27;100.00
38285;BME280;24088;42.664;23.354;2022-11-04T03:03:28;95096.38;;;10.22;100.00
38285;BME280;24088;42.664;23.354;2022-11-04T03:04:33;95087.09;;;10.66;100.00
38285;BME280;24088;42.664;23.354;2022-11-04T03:05:37;95083.66;;;10.62;100.00
38285;BME280;24088;42.664;23.354;2022-11-04T03:06:39;95096.13;;;10.40;100.00
38285;BME280;24088;42.664;23.354;2022-11-04T03:07:41;95091.41;;;10.40;100.00
38285;BME280;24088;42.664;23.354;2022-11-04T03:08:44;95094.72;;;10.78;100.00
38285;BME280;24088;42.664;23.354;2022-11-04T03:09:47;95086.44;;;10.82;100.00
38285;BME280;24088;42.664;23.354;2022-11-04T03:10:51;95088.53;;;10.51;100.00
38285;BME280;24088;42.664;23.354;2022-11-04T03:11:54;95087.91;;;10.40;100.00
38285;BME280;24088;42.664;23.354;2022-11-04T03:12:57;95096.81;;;10.47;100.00
38285;BME280;24088;42.664;23.354;2022-11-04T03:14:02;95090.31;;;10.38;100.00
38285;BME280;24088;42.664;23.354;2022-11-04T03:15:05;95083.56;;;10.66;100.00
38285;BME280;24088;42.664;23.354;2022-11-04T03:16:09;95085.47;;;10.69;100.00
38285;BME280;24088;42.664;23.354;2022-11-04T03:17:12;95085.88;;;10.44;100.00
38285;BME280;24088;42.664;23.354;2022-11-04T03:18:17;95093.41;;;10.40;100.00
38285;BME280;24088;42.664;23.354;2022-11-04T03:19:22;95097.00;;;10.37;100.00
38285;BME280;24088;42.664;23.354;2022-11-04T03:20:26;95096.38;;;10.25;100.00
38285;BME280;24088;42.664;23.354;2022-11-04T03:21:27;95098.69;;;10.23;100.00
38285;BME280;24088;42.664;23.354;2022-11-04T03:22:32;95097.56;;;10.24;100.00
38285;BME280;24088;42.664;23.354;2022-11-04T03:23:34;95095.56;;;10.52;100.00
38285;BME280;24088;42.664;23.354;2022-11-04T03:24:36;95088.56;;;10.47;100.00
38285;BME280;24088;42.664;23.354;2022-11-04T03:25:38;95084.00;;;10.41;100.00
38285;BME280;24088;42.664;23.354;2022-11-04T03:26:42;95089.53;;;10.37;100.00
38285;BME280;24088;42.664;23.354;2022-11-04T03:27:45;95091.78;;;10.15;100.00
38285;BME280;24088;42.664;23.354;2022-11-04T03:28:49;95097.13;;;10.26;100.00
38285;BME280;24088;42.664;23.354;2022-11-04T03:29:55;95094.66;;;10.35;100.00
38285;BME280;24088;42.664;23.354;2022-11-04T03:31:00;95089.72;;;10.50;100.00
38285;BME280;24088;42.664;23.354;2022-11-04T03:32:04;95092.06;;;10.24;100.00
38285;BME280;24088;42.664;23.354;2022-11-04T03:33:10;95090.31;;;10.11;100.00
38285;BME280;24088;42.664;23.354;2022-11-04T03:34:14;95091.38;;;10.17;100.00
38285;BME280;24088;42.664;23.354;2022-11-04T03:35:16;95088.28;;;10.42;100.00
38285;BME280;24088;42.664;23.354;2022-11-04T03:36:17;95088.84;;;10.30;100.00
38285;BME280;24088;42.664;23.354;2022-11-04T03:37:19;95093.03;;;10.11;100.00
38285;BME280;24088;42.664;23.354;2022-11-04T03:38:19;95092.56;;;10.16;100.00
38285;BME280;24088;42.664;23.354;2022-11-04T03:39:22;95092.44;;;9.96;100.00
38285;BME280;24088;42.664;23.354;2022-11-04T03:40:22;95087.09;;;10.16;100.00
38285;BME280;24088;42.664;23.354;2022-11-04T03:41:26;95098.25;;;10.56;100.00
38285;BME280;24088;42.664;23.354;2022-11-04T03:42:29;95094.97;;;10.41;100.00
38285;BME280;24088;42.664;23.354;2022-11-04T03:43:32;95092.88;;;10.21;100.00
38285;BME280;24088;42.664;23.354;2022-11-04T03:44:34;95093.38;;;10.13;100.00
38285;BME280;24088;42.664;23.354;2022-11-04T03:45:36;95094.72;;;10.01;100.00
38285;BME280;24088;42.664;23.354;2022-11-04T03:46:38;95092.97;;;10.14;100.00
38285;BME280;24088;42.664;23.354;2022-11-04T03:47:40;95095.63;;;9.94;100.00
38285;BME280;24088;42.664;23.354;2022-11-04T03:48:40;95090.69;;;9.82;100.00
38285;BME280;24088;42.664;23.354;2022-11-04T03:49:45;95086.31;;;10.15;100.00
38285;BME280;24088;42.664;23.354;2022-11-04T03:50:47;95086.94;;;9.99;100.00
38285;BME280;24088;42.664;23.354;2022-11-04T03:51:49;95083.75;;;10.01;100.00
38285;BME280;24088;42.664;23.354;2022-11-04T03:52:49;95089.16;;;10.08;100.00
38285;BME280;24088;42.664;23.354;2022-11-04T03:53:51;95094.22;;;10.10;100.00
38285;BME280;24088;42.664;23.354;2022-11-04T03:54:52;95092.56;;;10.16;100.00
38285;BME280;24088;42.664;23.354;2022-11-04T03:56:01;95088.81;;;10.33;100.00
38285;BME280;24088;42.664;23.354;2022-11-04T03:57:12;95089.06;;;10.15;100.00
38285;BME280;24088;42.664;23.354;2022-11-04T03:58:19;95095.16;;;9.99;100.00
38285;BME280;24088;42.664;23.354;2022-11-04T03:59:27;95086.34;;;10.12;100.00
38285;BME280;24088;42.664;23.354;2022-11-04T04:00:36;95082.69;;;9.95;100.00
38285;BME280;24088;42.664;23.354;2022-11-04T04:01:40;95090.09;;;9.98;100.00
38285;BME280;24088;42.664;23.354;2022-11-04T04:02:48;95086.09;;;10.02;100.00
38285;BME280;24088;42.664;23.354;2022-11-04T04:03:51;95078.06;;;9.88;100.00
38285;BME280;24088;42.664;23.354;2022-11-04T04:04:57;95087.94;;;9.82;100.00
38285;BME280;24088;42.664;23.354;2022-11-04T04:06:00;95083.19;;;9.86;100.00
38285;BME280;24088;42.664;23.354;2022-11-04T04:07:06;95090.00;;;10.01;100.00
38285;BME280;24088;42.664;23.354;2022-11-04T04:08:12;95080.09;;;10.11;100.00
38285;BME280;24088;42.664;23.354;2022-11-04T04:09:17;95080.66;;;9.99;100.00
38285;BME280;24088;42.664;23.354;2022-11-04T04:10:21;95079.47;;;10.00;100.00
38285;BME280;24088;42.664;23.354;2022-11-04T04:11:42;95084.00;;;9.83;100.00
38285;BME280;24088;42.664;23.354;2022-11-04T04:12:45;95082.78;;;9.88;100.00
38285;BME280;24088;42.664;23.354;2022-11-04T04:13:48;95084.69;;;9.91;100.00
38285;BME280;24088;42.664;23.354;2022-11-04T04:14:53;95086.09;;;9.72;100.00
38285;BME280;24088;42.664;23.354;2022-11-04T04:15:58;95090.53;;;9.62;100.00
38285;BME280;24088;42.664;23.354;2022-11-04T04:16:59;95084.34;;;9.58;100.00
38285;BME280;24088;42.664;23.354;2022-11-04T04:18:04;95087.22;;;9.78;100.00
38285;BME280;24088;42.664;23.354;2022-11-04T04:19:09;95091.28;;;9.66;100.00
38285;BME280;24088;42.664;23.354;2022-11-04T04:20:13;95074.56;;;9.57;100.00
38285;BME280;24088;42.664;23.354;2022-11-04T04:21:16;95085.94;;;9.56;100.00
38285;BME280;24088;42.664;23.354;2022-11-04T04:22:19;95082.44;;;9.55;100.00
38285;BME280;24088;42.664;23.354;2022-11-04T04:23:22;95085.75;;;9.70;100.00
38285;BME280;24088;42.664;23.354;2022-11-04T04:24:44;95076.06;;;9.62;100.00
38285;BME280;24088;42.664;23.354;2022-11-04T04:26:02;95084.28;;;9.62;100.00
38285;BME280;24088;42.664;23.354;2022-11-04T04:27:22;95081.94;;;9.64;100.00
38285;BME280;24088;42.664;23.354;2022-11-04T04:28:32;95087.47;;;9.60;100.00
38285;BME280;24088;42.664;23.354;2022-11-04T04:29:33;95083.47;;;9.65;100.00
38285;BME280;24088;42.664;23.354;2022-11-04T04:30:36;95085.72;;;9.73;100.00
38285;BME280;24088;42.664;23.354;2022-11-04T04:31:37;95082.31;;;9.62;100.00
38285;BME280;24088;42.664;23.354;2022-11-04T04:32:57;95080.34;;;9.63;100.00
38285;BME280;24088;42.664;23.354;2022-11-04T04:33:59;95078.25;;;9.74;100.00
38285;BME280;24088;42.664;23.354;2022-11-04T04:35:00;95081.47;;;9.69;100.00
38285;BME280;24088;42.664;23.354;2022-11-04T04:36:20;95081.25;;;9.56;100.00
38285;BME280;24088;42.664;23.354;2022-11-04T04:37:22;95077.66;;;9.59;100.00
38285;BME280;24088;42.664;23.354;2022-11-04T04:38:23;95075.03;;;9.52;100.00
38285;BME280;24088;42.664;23.354;2022-11-04T04:39:44;95081.84;;;9.37;100.00
38285;BME280;24088;42.664;23.354;2022-11-04T04:41:07;95081.28;;;9.52;100.00
38285;BME280;24088;42.664;23.354;2022-11-04T04:42:30;95072.41;;;9.41;100.00
38285;BME280;24088;42.664;23.354;2022-11-04T04:43:49;95076.72;;;9.42;100.00
38285;BME280;24088;42.664;23.354;2022-11-04T04:45:11;95071.25;;;9.42;100.00
38285;BME280;24088;42.664;23.354;2022-11-04T04:46:19;95080.31;;;9.36;100.00
38285;BME280;24088;42.664;23.354;2022-11-04T04:47:20;95083.09;;;9.32;100.00
38285;BME280;24088;42.664;23.354;2022-11-04T04:48:22;95084.13;;;9.42;100.00
38285;BME280;24088;42.664;23.354;2022-11-04T04:49:24;95085.97;;;9.21;100.00
38285;BME280;24088;42.664;23.354;2022-11-04T04:50:34;95079.69;;;9.55;100.00
38285;BME280;24088;42.664;23.354;2022-11-04T04:51:39;95073.59;;;9.40;100.00
38285;BME280;24088;42.664;23.354;2022-11-04T04:52:41;95080.53;;;9.48;100.00
38285;BME280;24088;42.664;23.354;2022-11-04T04:53:43;95082.28;;;9.35;100.00
38285;BME280;24088;42.664;23.354;2022-11-04T04:54:43;95081.31;;;9.49;100.00
38285;BME280;24088;42.664;23.354;2022-11-04T04:55:45;95079.72;;;9.82;100.00
38285;BME280;24088;42.664;23.354;2022-11-04T04:56:46;95079.13;;;9.67;100.00
38285;BME280;24088;42.664;23.354;2022-11-04T04:57:47;95079.00;;;9.47;100.00
38285;BME280;24088;42.664;23.354;2022-11-04T04:58:48;95080.53;;;9.48;100.00
38285;BME280;24088;42.664;23.354;2022-11-04T04:59:49;95082.59;;;9.41;100.00
38285;BME280;24088;42.664;23.354;2022-11-04T05:00:50;95082.97;;;9.43;100.00
38285;BME280;24088;42.664;23.354;2022-11-04T05:01:51;95087.38;;;9.33;100.00
38285;BME280;24088;42.664;23.354;2022-11-04T05:02:52;95081.16;;;9.29;100.00
38285;BME280;24088;42.664;23.354;2022-11-04T05:03:53;95079.75;;;9.17;100.00
38285;BME280;24088;42.664;23.354;2022-11-04T05:04:54;95079.06;;;9.06;100.00
38285;BME280;24088;42.664;23.354;2022-11-04T05:05:57;95080.47;;;9.21;100.00
38285;BME280;24088;42.664;23.354;2022-11-04T05:06:59;95083.38;;;9.03;100.00
38285;BME280;24088;42.664;23.354;2022-11-04T05:08:04;95083.22;;;9.21;100.00
38285;BME280;24088;42.664;23.354;2022-11-04T05:09:05;95080.84;;;9.23;100.00
38285;BME280;24088;42.664;23.354;2022-11-04T05:10:08;95084.44;;;9.17;100.00
38285;BME280;24088;42.664;23.354;2022-11-04T05:11:10;95084.44;;;9.17;100.00
38285;BME280;24088;42.664;23.354;2022-11-04T05:12:12;95085.44;;;9.34;100.00
38285;BME280;24088;42.664;23.354;2022-11-04T05:13:13;95086.22;;;9.34;100.00
38285;BME280;24088;42.664;23.354;2022-11-04T05:14:28;95092.91;;;9.30;100.00
38285;BME280;24088;42.664;23.354;2022-11-04T05:15:29;95089.81;;;9.58;100.00
38285;BME280;24088;42.664;23.354;2022-11-04T05:16:31;95087.31;;;9.71;100.00
38285;BME280;24088;42.664;23.354;2022-11-04T05:17:32;95091.66;;;9.68;100.00
38285;BME280;24088;42.664;23.354;2022-11-04T05:18:33;95089.91;;;9.51;100.00
38285;BME280;24088;42.664;23.354;2022-11-04T05:19:34;95090.69;;;9.51;100.00
38285;BME280;24088;42.664;23.354;2022-11-04T05:20:35;95094.56;;;9.54;100.00
38285;BME280;24088;42.664;23.354;2022-11-04T05:21:37;95094.75;;;9.40;100.00
38285;BME280;24088;42.664;23.354;2022-11-04T05:22:40;95089.88;;;9.20;100.00
38285;BME280;24088;42.664;23.354;2022-11-04T05:23:41;95092.94;;;9.60;100.00
38285;BME280;24088;42.664;23.354;2022-11-04T05:24:42;95094.72;;;9.43;100.00
38285;BME280;24088;42.664;23.354;2022-11-04T05:25:43;95091.53;;;9.45;100.00
38285;BME280;24088;42.664;23.354;2022-11-04T05:26:44;95097.03;;;9.45;100.00
38285;BME280;24088;42.664;23.354;2022-11-04T05:27:45;95093.28;;;9.32;100.00
38285;BME280;24088;42.664;23.354;2022-11-04T05:28:46;95094.78;;;9.36;100.00
38285;BME280;24088;42.664;23.354;2022-11-04T05:29:47;95086.75;;;9.52;100.00
38285;BME280;24088;42.664;23.354;2022-11-04T05:30:48;95093.56;;;9.71;100.00
38285;BME280;24088;42.664;23.354;2022-11-04T05:31:49;95093.28;;;9.93;100.00
38285;BME280;24088;42.664;23.354;2022-11-04T05:32:50;95094.22;;;9.83;100.00
38285;BME280;24088;42.664;23.354;2022-11-04T05:33:51;95100.94;;;9.78;100.00
38285;BME280;24088;42.664;23.354;2022-11-04T05:34:53;95094.72;;;9.74;100.00
38285;BME280;24088;42.664;23.354;2022-11-04T05:35:53;95100.41;;;9.56;100.00